This is the latest recevied weather packets stored in our database for station/object OE-11099. If no packets are shown the sender has not sent any weather packets the latest 10 day(s).
| Time | Temp. | Humidity | Pressure | Rain* | Wind** | Luminosity | Snow |
|---|---|---|---|---|---|---|---|
| 1787771106 | 21.67° C | 69% | 1014.1 hPa | 0 mm | - | 0 W/m² | - |
| 1787770506 | 21.67° C | 73% | 1014.2 hPa | 0 mm | - | 0 W/m² | - |
| 1787769679 | 22.22° C | 70% | 1014 hPa | 0 mm | - | 0 W/m² | - |
| 1787769306 | 22.22° C | 69% | 1013.8 hPa | 0 mm | - | 7 W/m² | - |
| 1787768706 | 22.78° C | 65% | 1013.6 hPa | 0 mm | - | 7 W/m² | - |
| 1787767880 | 23.33° C | 63% | 1013.5 hPa | 0 mm | - | 13 W/m² | - |
| 1787767506 | 23.33° C | 62% | 1013.4 hPa | 0 mm | - | 20 W/m² | - |
| 1787766906 | 23.33° C | 69% | 1013.4 hPa | 0 mm | - | 33 W/m² | - |
| 1787766079 | 23.89° C | 68% | 1013.3 hPa | 0 mm | - | 40 W/m² | - |
| 1787765706 | 24.44° C | 61% | 1013.2 hPa | 0 mm | - | 53 W/m² | - |
| 1787765105 | 25° C | 56% | 1013.1 hPa | 0 mm | - | 80 W/m² | - |
| 1787764279 | 25° C | 54% | 1013 hPa | 0 mm | - | 73 W/m² | - |
| 1787763906 | 25.56° C | 54% | 1013 hPa | 0 mm | - | 60 W/m² | - |
| 1787763305 | 25.56° C | 51% | 1012.7 hPa | 0 mm | - | 86 W/m² | - |
| 1787762479 | 26.11° C | 50% | 1012.6 hPa | 0 mm | - | 133 W/m² | - |
| 1787762106 | 26.11° C | 50% | 1012.5 hPa | 0 mm | - | 160 W/m² | - |
| 1787761506 | 26.11° C | 50% | 1012.5 hPa | 0 mm | - | 100 W/m² | - |
| 1787760679 | 26.67° C | 47% | 1012.4 hPa | 0 mm | - | 166 W/m² | - |
| 1787760306 | 27.22° C | 46% | 1012.3 hPa | 0 mm | - | 346 W/m² | - |
| 1787759706 | 27.22° C | 47% | 1012.1 hPa | 0 mm | - | 266 W/m² | - |
| 1787758879 | 27.22° C | 46% | 1012 hPa | 0 mm | - | 352 W/m² | - |
| 1787758505 | 27.78° C | 45% | 1011.9 hPa | 0 mm | - | 392 W/m² | - |
| 1787757906 | 27.22° C | 48% | 1012.1 hPa | 0 mm | - | 226 W/m² | - |
| 1787757079 | 27.22° C | 48% | 1012.1 hPa | 0 mm | - | 313 W/m² | - |
| 1787756706 | 27.78° C | 48% | 1012.2 hPa | 0 mm | - | 346 W/m² | - |
* Rain latest hour (hover to see other rain measurements)
** Current wind speed in m/s (hover to see current wind gust speed)